createdAt,value
2018-01-26T00:00:57.705Z,129.4102
2018-01-26T00:02:02.914Z,129.6639
2018-01-26T00:03:07.546Z,129.1592
2018-01-26T00:04:13.271Z,130.3403
2018-01-26T00:05:18.454Z,130.1712
2018-01-26T00:06:24.559Z,129.6639
2018-01-26T00:07:29.499Z,129.6639
2018-01-26T00:08:34.970Z,129.6639
2018-01-26T00:09:40.706Z,129.9176
2018-01-26T00:10:46.179Z,130.1712
2018-01-26T00:11:51.385Z,130.1712
2018-01-26T00:12:57.308Z,129.9176
2018-01-26T00:14:02.773Z,129.6639
2018-01-26T00:15:07.949Z,129.9176
2018-01-26T00:16:13.505Z,129.4102
2018-01-26T00:17:18.411Z,130.1712
2018-01-26T00:18:23.881Z,130.3403
2018-01-26T00:19:29.601Z,129.9176
2018-01-26T00:20:34.828Z,130.3403
2018-01-26T00:21:40.554Z,130.1712
2018-01-26T00:22:45.176Z,130.3403
2018-01-26T00:23:50.645Z,130.1712
2018-01-26T00:24:56.379Z,130.845
2018-01-26T00:26:01.582Z,130.845
2018-01-26T00:27:07.071Z,130.845
2018-01-26T00:28:12.478Z,130.1712
2018-01-26T00:29:17.683Z,130.845
2018-01-26T00:30:23.158Z,130.5913
2018-01-26T00:31:28.948Z,131.0987
2018-01-26T00:32:34.418Z,130.3403
2018-01-26T00:33:40.142Z,130.5913
2018-01-26T00:34:45.624Z,131.3497
2018-01-26T00:35:50.256Z,131.3497
2018-01-26T00:36:55.961Z,130.3403
2018-01-26T00:38:01.150Z,130.845
2018-01-26T00:39:06.349Z,130.5913
2018-01-26T00:40:11.470Z,130.3403
2018-01-26T00:41:16.674Z,130.1712
2018-01-26T00:42:22.134Z,130.1712
2018-01-26T00:43:28.200Z,129.1592
2018-01-26T00:44:33.685Z,129.6639
2018-01-26T00:45:39.118Z,129.4102
2018-01-26T00:46:44.581Z,129.6639
2018-01-26T00:47:50.043Z,129.6639
2018-01-26T00:48:56.014Z,129.1592
2018-01-26T00:50:01.204Z,130.1712
2018-01-26T00:51:06.399Z,129.1592
2018-01-26T00:52:11.036Z,129.1592
2018-01-26T00:53:15.967Z,129.1592
2018-01-26T00:54:21.151Z,128.9055
2018-01-26T00:55:26.684Z,128.2318
2018-01-26T00:56:32.171Z,128.2318
2018-01-26T00:57:37.887Z,128.2318
2018-01-26T00:58:43.351Z,129.1592
2018-01-26T00:59:48.812Z,128.2318
2018-01-26T01:00:54.589Z,128.9055
2018-01-26T01:01:59.780Z,128.2318
2018-01-26T01:03:05.250Z,129.1592
2018-01-26T01:04:10.373Z,129.1592
2018-01-26T01:05:15.845Z,127.9781
2018-01-26T01:06:21.338Z,127.809
2018-01-26T01:07:27.061Z,127.9781
2018-01-26T01:08:31.958Z,128.7364
2018-01-26T01:09:37.673Z,128.7364
2018-01-26T01:10:43.148Z,127.558
2018-01-26T01:11:48.613Z,127.809
2018-01-26T01:12:54.071Z,128.9055
2018-01-26T01:13:58.970Z,128.4854
2018-01-26T01:15:04.162Z,128.4854
2018-01-26T01:16:09.980Z,128.7364
2018-01-26T01:17:14.864Z,127.809
2018-01-26T01:18:20.065Z,128.9055
2018-01-26T01:19:25.830Z,127.558
2018-01-26T01:20:31.309Z,128.2318
2018-01-26T01:21:36.197Z,128.2318
2018-01-26T01:22:41.373Z,128.2318
2018-01-26T01:23:45.727Z,127.558
2018-01-26T01:24:50.648Z,126.7996
2018-01-26T01:25:56.119Z,127.558
2018-01-26T01:27:01.303Z,127.3043
2018-01-26T01:28:06.466Z,127.3043
2018-01-26T01:29:11.367Z,126.2949
2018-01-26T01:30:16.557Z,127.3043
2018-01-26T01:31:22.325Z,127.0506
2018-01-26T01:32:27.822Z,126.7996
2018-01-26T01:33:33.458Z,126.7996
2018-01-26T01:34:38.665Z,127.0506
2018-01-26T01:35:43.846Z,126.7996
2018-01-26T01:36:49.400Z,127.3043
2018-01-26T01:37:54.874Z,125.5366
2018-01-26T01:39:00.344Z,126.7996
2018-01-26T01:40:05.223Z,125.7876
2018-01-26T01:41:10.125Z,126.2949
2018-01-26T01:42:15.309Z,126.7996
2018-01-26T01:43:20.757Z,126.7996
2018-01-26T01:44:26.219Z,127.0506
2018-01-26T01:45:32.254Z,127.809
2018-01-26T01:46:37.175Z,127.0506
2018-01-26T01:47:42.657Z,128.2318
2018-01-26T01:48:47.809Z,128.2318
2018-01-26T01:49:53.282Z,127.3043
2018-01-26T01:50:58.463Z,128.7364
2018-01-26T01:52:04.396Z,128.2318
2018-01-26T01:53:09.613Z,127.809
2018-01-26T01:54:15.076Z,127.809
2018-01-26T01:55:20.536Z,127.9781
2018-01-26T01:56:25.724Z,127.558
2018-01-26T01:57:31.546Z,127.558
2018-01-26T01:58:37.041Z,127.9781
2018-01-26T01:59:42.216Z,127.3043
2018-01-26T02:00:47.674Z,126.7996
2018-01-26T02:01:53.151Z,126.7996
2018-01-26T02:02:58.639Z,126.7996
2018-01-26T02:04:03.892Z,127.809
2018-01-26T02:05:09.080Z,127.0506
2018-01-26T02:06:14.546Z,126.0413
2018-01-26T02:07:19.996Z,127.558
2018-01-26T02:08:25.470Z,127.809
2018-01-26T02:09:30.786Z,127.0506
2018-01-26T02:10:35.671Z,125.7876
2018-01-26T02:11:41.137Z,125.7876
2018-01-26T02:12:46.594Z,126.7996
2018-01-26T02:13:51.795Z,127.3043
2018-01-26T02:14:57.255Z,127.0506
2018-01-26T02:16:02.461Z,127.809
2018-01-26T02:17:07.382Z,127.558
2018-01-26T02:18:12.267Z,127.9781
2018-01-26T02:19:17.698Z,127.558
2018-01-26T02:20:23.206Z,126.2949
2018-01-26T02:21:28.943Z,127.558
2018-01-26T02:22:34.404Z,127.0506
2018-01-26T02:23:39.864Z,126.7996
2018-01-26T02:24:45.305Z,126.7996
2018-01-26T02:25:50.828Z,127.9781
2018-01-26T02:26:56.310Z,128.2318
2018-01-26T02:28:01.827Z,127.809
2018-01-26T02:29:06.755Z,127.558
2018-01-26T02:30:11.972Z,127.3043
2018-01-26T02:31:17.688Z,127.3043
2018-01-26T02:32:22.850Z,128.2318
2018-01-26T02:33:28.313Z,127.809
2018-01-26T02:34:33.782Z,127.9781
2018-01-26T02:35:39.236Z,127.809
2018-01-26T02:36:44.673Z,127.9781
2018-01-26T02:37:50.130Z,127.9781
2018-01-26T02:38:55.607Z,128.4854
2018-01-26T02:40:02.012Z,127.809
2018-01-26T02:41:06.654Z,128.2318
2018-01-26T02:42:12.134Z,127.9781
2018-01-26T02:43:17.568Z,127.3043
2018-01-26T02:44:22.467Z,127.809
2018-01-26T02:45:28.217Z,128.4854
2018-01-26T02:46:33.703Z,128.7364
2018-01-26T02:47:39.416Z,127.9781
2018-01-26T02:48:44.909Z,128.2318
2018-01-26T02:49:50.395Z,128.7364
2018-01-26T02:50:55.867Z,128.9055
2018-01-26T02:52:01.494Z,128.4854
2018-01-26T02:53:06.406Z,128.9055
2018-01-26T02:54:11.581Z,129.1592
2018-01-26T02:55:17.064Z,129.1592
2018-01-26T02:56:22.321Z,130.1712
2018-01-26T02:57:28.127Z,128.7364
2018-01-26T02:58:33.596Z,129.4102
2018-01-26T02:59:38.787Z,128.7364
2018-01-26T03:00:43.610Z,128.7364
2018-01-26T03:01:49.087Z,128.2318
2018-01-26T03:02:54.558Z,128.7364
2018-01-26T03:04:00.280Z,128.4854
2018-01-26T03:05:05.757Z,128.9055
2018-01-26T03:06:10.650Z,128.4854
2018-01-26T03:07:16.101Z,129.1592
2018-01-26T03:08:21.597Z,128.2318
2018-01-26T03:09:26.783Z,127.809
2018-01-26T03:10:31.968Z,128.4854
2018-01-26T03:11:36.867Z,127.558
2018-01-26T03:12:42.580Z,126.7996
2018-01-26T03:13:48.080Z,127.809
2018-01-26T03:14:53.564Z,127.0506
2018-01-26T03:15:59.327Z,127.558
2018-01-26T03:17:04.230Z,127.0506
2018-01-26T03:18:09.146Z,127.0506
2018-01-26T03:19:14.293Z,126.2949
2018-01-26T03:20:19.200Z,127.0506
2018-01-26T03:21:24.993Z,127.0506
2018-01-26T03:22:30.462Z,127.3043
2018-01-26T03:23:35.958Z,126.2949
2018-01-26T03:24:41.763Z,125.7876
2018-01-26T03:25:46.965Z,126.7996
2018-01-26T03:26:52.175Z,126.0413
2018-01-26T03:27:57.991Z,124.9447
2018-01-26T03:29:03.445Z,125.1984
2018-01-26T03:30:08.354Z,126.2949
2018-01-26T03:31:14.078Z,125.7876
2018-01-26T03:32:19.549Z,126.0413
2018-01-26T03:33:39.909Z,125.5366
2018-01-26T03:34:45.086Z,125.7876
2018-01-26T03:35:49.984Z,124.9447
2018-01-26T03:36:55.748Z,125.3675
2018-01-26T03:38:01.225Z,125.7876
2018-01-26T03:39:06.451Z,125.3675
2018-01-26T03:40:11.313Z,125.5366
2018-01-26T03:41:16.823Z,125.1984
2018-01-26T03:42:22.014Z,125.5366
2018-01-26T03:43:27.758Z,126.2949
2018-01-26T03:44:32.935Z,126.7996
2018-01-26T03:45:38.969Z,127.0506
2018-01-26T03:46:44.153Z,127.3043
2018-01-26T03:47:49.050Z,126.0413
2018-01-26T03:48:54.580Z,125.7876
2018-01-26T03:50:00.056Z,126.2949
2018-01-26T03:51:05.235Z,125.7876
2018-01-26T03:52:10.187Z,126.7996
2018-01-26T03:53:15.395Z,125.5366
2018-01-26T03:54:20.867Z,125.7876
2018-01-26T03:55:26.819Z,126.0413
2018-01-26T03:56:32.318Z,125.7876
2018-01-26T03:57:37.755Z,125.7876
2018-01-26T03:58:43.220Z,124.6937
2018-01-26T03:59:48.685Z,125.5366
2018-01-26T04:00:54.411Z,125.5366
2018-01-26T04:01:59.918Z,125.3675
2018-01-26T04:03:05.094Z,124.1864
2018-01-26T04:04:10.331Z,123.9353
2018-01-26T04:05:15.798Z,124.44
2018-01-26T04:06:20.975Z,123.6817
2018-01-26T04:07:41.043Z,123.6817
2018-01-26T04:08:46.521Z,122.9233
2018-01-26T04:09:52.304Z,122.9233
2018-01-26T04:10:57.769Z,123.177
2018-01-26T04:12:02.967Z,123.177
2018-01-26T04:13:08.119Z,123.177
2018-01-26T04:14:13.604Z,122.2495
2018-01-26T04:15:19.063Z,122.5032
2018-01-26T04:16:24.520Z,122.9233
2018-01-26T04:17:30.015Z,122.2495
2018-01-26T04:18:34.964Z,122.2495
2018-01-26T04:19:40.443Z,122.5032
2018-01-26T04:20:45.935Z,121.9985
2018-01-26T04:21:51.720Z,121.7449
2018-01-26T04:22:57.164Z,122.7542
2018-01-26T04:24:02.626Z,122.9233
2018-01-26T04:25:08.279Z,122.5032
2018-01-26T04:26:13.192Z,122.5032
2018-01-26T04:27:18.392Z,122.5032
2018-01-26T04:28:23.917Z,122.2495
2018-01-26T04:29:29.094Z,122.9233
2018-01-26T04:30:35.045Z,122.2495
2018-01-26T04:31:40.217Z,122.2495
2018-01-26T04:32:45.697Z,122.7542
2018-01-26T04:33:51.421Z,122.2495
2018-01-26T04:34:56.353Z,122.5032
2018-01-26T04:36:01.253Z,121.7449
2018-01-26T04:37:06.705Z,121.7449
2018-01-26T04:38:11.613Z,122.2495
2018-01-26T04:39:17.116Z,121.7449
2018-01-26T04:40:21.978Z,122.2495
2018-01-26T04:41:27.470Z,122.2495
2018-01-26T04:42:33.342Z,121.7449
2018-01-26T04:43:38.526Z,121.7449
2018-01-26T04:44:43.986Z,121.7449
2018-01-26T04:45:49.707Z,121.7449
2018-01-26T04:46:54.907Z,120.4818
2018-01-26T04:48:00.373Z,122.2495
2018-01-26T04:49:06.101Z,120.7328
2018-01-26T04:50:11.273Z,121.7449
2018-01-26T04:51:16.180Z,121.9985
2018-01-26T04:52:21.792Z,121.2402
2018-01-26T04:53:27.259Z,121.4912
2018-01-26T04:54:32.909Z,121.7449
2018-01-26T04:55:38.116Z,121.2402
2018-01-26T04:56:43.288Z,121.2402
2018-01-26T04:57:49.146Z,120.9865
2018-01-26T04:58:54.603Z,120.7328
2018-01-26T05:00:00.081Z,120.9865
2018-01-26T05:01:05.357Z,120.3127
2018-01-26T05:02:10.550Z,120.4818
2018-01-26T05:03:15.722Z,120.0591
2018-01-26T05:04:21.169Z,119.5544
2018-01-26T05:05:25.817Z,119.5544
2018-01-26T05:06:31.262Z,118.7987
2018-01-26T05:07:36.449Z,118.545
2018-01-26T05:08:41.912Z,119.0497
2018-01-26T05:09:47.354Z,119.3034
2018-01-26T05:10:52.860Z,119.5544
2018-01-26T05:11:58.335Z,119.0497
2018-01-26T05:13:03.761Z,119.0497
2018-01-26T05:14:09.282Z,120.0591
2018-01-26T05:15:14.203Z,119.5544
2018-01-26T05:16:19.397Z,119.5544
2018-01-26T05:17:24.863Z,120.0591
2018-01-26T05:18:31.133Z,119.808
2018-01-26T05:19:36.602Z,119.0497
2018-01-26T05:20:41.775Z,119.0497
2018-01-26T05:21:47.732Z,120.0591
2018-01-26T05:22:53.188Z,119.0497
2018-01-26T05:23:58.377Z,119.5544
2018-01-26T05:25:03.672Z,119.3034
2018-01-26T05:26:08.558Z,119.0497
2018-01-26T05:27:13.745Z,119.5544
2018-01-26T05:28:19.661Z,118.7987
2018-01-26T05:29:24.860Z,119.0497
2018-01-26T05:30:29.955Z,118.545
2018-01-26T05:31:35.153Z,119.3034
2018-01-26T05:32:40.612Z,118.0403
2018-01-26T05:33:46.115Z,118.0403
2018-01-26T05:34:51.599Z,118.0403
2018-01-26T05:35:56.786Z,117.8712
2018-01-26T05:37:02.252Z,117.6176
2018-01-26T05:38:06.881Z,117.1129
2018-01-26T05:39:12.350Z,117.3665
2018-01-26T05:40:18.057Z,117.6176
2018-01-26T05:41:23.544Z,118.0403
2018-01-26T05:42:29.455Z,117.8712
2018-01-26T05:43:34.927Z,118.7987
2018-01-26T05:44:40.383Z,118.0403
2018-01-26T05:45:46.206Z,118.2913
2018-01-26T05:46:51.679Z,118.0403
2018-01-26T05:47:57.151Z,117.6176
2018-01-26T05:49:02.614Z,118.2913
2018-01-26T05:50:07.239Z,117.8712
2018-01-26T05:51:12.427Z,117.3665
2018-01-26T05:52:18.194Z,117.6176
2018-01-26T05:53:23.663Z,117.3665
2018-01-26T05:54:29.575Z,117.1129
2018-01-26T05:55:34.756Z,117.3665
2018-01-26T05:56:40.226Z,117.1129
2018-01-26T05:57:46.134Z,116.8618
2018-01-26T05:58:51.316Z,116.8618
2018-01-26T05:59:56.783Z,116.6082
2018-01-26T06:01:02.236Z,116.3572
2018-01-26T06:02:07.409Z,117.1129
2018-01-26T06:03:12.578Z,115.8498
2018-01-26T06:04:18.402Z,115.8498
2018-01-26T06:05:23.283Z,116.1035
2018-01-26T06:06:29.434Z,116.3572
2018-01-26T06:07:34.911Z,115.8498
2018-01-26T06:08:40.383Z,116.6082
2018-01-26T06:09:46.190Z,116.1035
2018-01-26T06:10:51.655Z,116.8618
2018-01-26T06:11:56.838Z,116.8618
2018-01-26T06:13:01.997Z,116.3572
2018-01-26T06:14:07.180Z,116.1035
2018-01-26T06:15:12.353Z,116.1035
2018-01-26T06:16:17.803Z,115.4297
2018-01-26T06:17:23.280Z,115.8498
2018-01-26T06:18:29.111Z,115.8498
2018-01-26T06:19:34.591Z,114.925
2018-01-26T06:20:39.779Z,115.4297
2018-01-26T06:21:45.694Z,114.6714
2018-01-26T06:22:51.156Z,115.1787
2018-01-26T06:23:56.606Z,115.1787
2018-01-26T06:25:02.044Z,114.925
2018-01-26T06:26:07.244Z,114.6714
2018-01-26T06:27:12.426Z,115.1787
2018-01-26T06:28:18.149Z,114.925
2018-01-26T06:29:23.615Z,115.5988
2018-01-26T06:30:29.435Z,115.5988
2018-01-26T06:31:34.640Z,116.1035
2018-01-26T06:32:39.824Z,115.5988
2018-01-26T06:33:45.597Z,115.5988
2018-01-26T06:34:51.065Z,115.4297
2018-01-26T06:35:56.242Z,115.8498
2018-01-26T06:37:01.679Z,115.5988
2018-01-26T06:38:06.869Z,115.5988
2018-01-26T06:39:11.484Z,115.8498
2018-01-26T06:40:17.203Z,115.8498
2018-01-26T06:41:22.671Z,115.5988
2018-01-26T06:42:28.388Z,115.4297
2018-01-26T06:43:33.842Z,115.5988
2018-01-26T06:44:39.022Z,115.8498
2018-01-26T06:45:44.180Z,115.5988
2018-01-26T06:46:49.655Z,116.1035
2018-01-26T06:47:55.137Z,116.1035
2018-01-26T06:49:00.572Z,116.8618
2018-01-26T06:50:06.045Z,115.4297
2018-01-26T06:51:10.961Z,115.4297
2018-01-26T06:52:16.540Z,115.5988
2018-01-26T06:53:21.729Z,116.1035
2018-01-26T06:54:27.435Z,115.4297
2018-01-26T06:55:32.894Z,115.4297
2018-01-26T06:56:38.085Z,114.1667
2018-01-26T06:57:43.791Z,114.925
2018-01-26T06:58:49.470Z,114.6714
2018-01-26T06:59:54.936Z,115.1787
2018-01-26T07:01:00.656Z,114.925
2018-01-26T07:02:05.572Z,114.6714
2018-01-26T07:03:10.503Z,114.6714
2018-01-26T07:04:16.134Z,114.4203
2018-01-26T07:05:21.610Z,113.662
2018-01-26T07:06:27.630Z,113.662
2018-01-26T07:07:33.425Z,113.662
2018-01-26T07:08:38.336Z,112.5681
2018-01-26T07:09:44.047Z,112.8217
2018-01-26T07:10:49.232Z,112.8217
2018-01-26T07:11:54.711Z,112.3171
2018-01-26T07:13:00.438Z,111.8124
2018-01-26T07:14:06.022Z,111.8124
2018-01-26T07:15:11.232Z,111.5587
2018-01-26T07:16:16.941Z,112.0634
2018-01-26T07:17:22.403Z,111.3051
2018-01-26T07:18:43.024Z,111.8124
2018-01-26T07:19:48.502Z,110.803
2018-01-26T07:20:53.399Z,110.803
2018-01-26T07:21:58.846Z,110.803
2018-01-26T07:23:04.321Z,110.3802
2018-01-26T07:24:09.799Z,110.1292
2018-01-26T07:25:15.289Z,109.8756
2018-01-26T07:26:20.449Z,109.6245
2018-01-26T07:27:40.823Z,109.6245
2018-01-26T07:28:46.301Z,108.1105
2018-01-26T07:29:51.752Z,108.3615
2018-01-26T07:30:57.308Z,108.6152
2018-01-26T07:32:02.497Z,109.1199
2018-01-26T07:33:07.725Z,108.3615
2018-01-26T07:34:12.936Z,107.9414
2018-01-26T07:35:18.406Z,108.8662
2018-01-26T07:36:23.306Z,107.9414
2018-01-26T07:37:28.917Z,108.6152
2018-01-26T07:38:34.392Z,108.1105
2018-01-26T07:39:40.107Z,108.8662
2018-01-26T07:40:45.293Z,109.1199
2018-01-26T07:41:50.770Z,109.1199
2018-01-26T07:42:56.542Z,109.3709
2018-01-26T07:44:01.733Z,109.8756
2018-01-26T07:45:07.202Z,108.1105
2018-01-26T07:46:12.664Z,109.1199
2018-01-26T07:47:18.135Z,108.6152
2018-01-26T07:48:23.639Z,108.3615
2018-01-26T07:49:28.530Z,108.3615
2018-01-26T07:50:34.007Z,107.6877
2018-01-26T07:51:39.889Z,107.1857
2018-01-26T07:52:44.787Z,107.4367
2018-01-26T07:53:49.734Z,107.4367
2018-01-26T07:54:55.580Z,107.1857
2018-01-26T07:56:00.779Z,106.932
2018-01-26T07:57:05.958Z,106.1763
2018-01-26T07:58:11.202Z,106.681
2018-01-26T07:59:16.672Z,106.1763
2018-01-26T08:00:21.286Z,106.1763
2018-01-26T08:01:27.228Z,105.6716
2018-01-26T08:02:32.691Z,104.9978
2018-01-26T08:03:37.844Z,105.6716
2018-01-26T08:04:43.304Z,105.2489
2018-01-26T08:05:48.774Z,104.5777
2018-01-26T08:06:54.205Z,105.2489
2018-01-26T08:07:59.545Z,105.2489
2018-01-26T08:09:05.021Z,105.2489
2018-01-26T08:10:09.610Z,105.2489
2018-01-26T08:11:15.123Z,105.2489
2018-01-26T08:12:20.293Z,105.6716
2018-01-26T08:13:25.203Z,104.5777
2018-01-26T08:14:30.663Z,104.073
2018-01-26T08:15:36.035Z,104.324
2018-01-26T08:16:41.496Z,103.822
2018-01-26T08:17:46.963Z,103.5683
2018-01-26T08:18:52.148Z,104.324
2018-01-26T08:19:57.669Z,103.3173
2018-01-26T08:21:02.903Z,103.0637
2018-01-26T08:22:08.503Z,102.3925
2018-01-26T08:23:13.721Z,102.3925
2018-01-26T08:24:19.169Z,103.0637
2018-01-26T08:25:24.914Z,102.6435
2018-01-26T08:26:30.108Z,102.3925
2018-01-26T08:27:35.823Z,102.1388
2018-01-26T08:28:41.302Z,103.0637
2018-01-26T08:29:46.209Z,103.5683
2018-01-26T08:30:51.812Z,103.0637
2018-01-26T08:31:57.257Z,102.1388
2018-01-26T08:33:02.439Z,102.3925
2018-01-26T08:34:07.584Z,101.8878
2018-01-26T08:35:11.926Z,101.8878
2018-01-26T08:36:16.847Z,102.1388
2018-01-26T08:37:22.299Z,101.6342
2018-01-26T08:38:27.499Z,102.1388
2018-01-26T08:39:33.197Z,102.3925
2018-01-26T08:40:38.431Z,101.8878
2018-01-26T08:41:43.528Z,102.1388
2018-01-26T08:42:49.452Z,102.8972
2018-01-26T08:43:54.660Z,101.3831
2018-01-26T08:44:59.852Z,101.6342
2018-01-26T08:46:05.339Z,101.6342
2018-01-26T08:47:10.817Z,100.6274
2018-01-26T08:48:16.000Z,100.6274
2018-01-26T08:49:21.462Z,101.1295
2018-01-26T08:50:26.991Z,100.8785
2018-01-26T08:51:32.906Z,100.4583
2018-01-26T08:52:38.389Z,101.8878
2018-01-26T08:53:43.857Z,100.4583
2018-01-26T08:54:49.580Z,100.4583
2018-01-26T08:55:54.771Z,100.4583
2018-01-26T08:56:59.955Z,100.4583
2018-01-26T08:58:05.729Z,100.2073
2018-01-26T08:59:10.055Z,99.7026
2018-01-26T09:00:15.527Z,99.9537
2018-01-26T09:01:20.711Z,100.6274
2018-01-26T09:02:26.180Z,100.4583
2018-01-26T09:03:32.093Z,101.3831
2018-01-26T09:04:37.485Z,100.6274
2018-01-26T09:05:42.972Z,100.6274
2018-01-26T09:23:35.928Z,98.2731
2018-01-26T09:24:41.750Z,98.2731
2018-01-26T09:25:46.927Z,97.3483
2018-01-26T09:26:52.601Z,98.0221
2018-01-26T09:27:58.335Z,96.8463
2018-01-26T09:29:03.843Z,96.8463
2018-01-26T09:30:08.747Z,96.8463
2018-01-26T09:31:14.332Z,96.0879
2018-01-26T09:32:19.226Z,95.5859
2018-01-26T09:34:44.593Z,96.0879
2018-01-26T09:35:49.496Z,95.5859
2018-01-26T09:36:54.634Z,95.5859
2018-01-26T09:37:59.829Z,95.4168
2018-01-26T09:39:05.016Z,94.4074
2018-01-26T09:40:10.891Z,94.9121
2018-01-26T09:41:16.382Z,95.1658
2018-01-26T09:42:22.015Z,94.6611
2018-01-26T09:43:42.516Z,95.5859
2018-01-26T09:44:47.701Z,94.9121
2018-01-26T09:45:53.539Z,95.5859
2018-01-26T09:46:58.717Z,94.1564
2018-01-26T09:48:04.234Z,94.9121
2018-01-26T09:49:09.786Z,95.1658
2018-01-26T09:50:15.241Z,94.4074
2018-01-26T09:51:20.692Z,94.6611
2018-01-26T09:52:26.506Z,93.9054
2018-01-26T09:53:31.445Z,94.4074
2018-01-26T09:54:37.164Z,94.4074
2018-01-26T09:55:42.095Z,94.9121
2018-01-26T09:56:47.300Z,94.4074
2018-01-26T09:57:53.239Z,95.1658
2018-01-26T09:58:58.453Z,94.9121
2018-01-26T10:00:03.359Z,95.1658
2018-01-26T10:01:08.508Z,94.1564
2018-01-26T10:02:13.987Z,93.4007
2018-01-26T10:03:19.190Z,93.4007
2018-01-26T10:04:24.331Z,92.9806
2018-01-26T10:05:28.957Z,92.7296
2018-01-26T10:06:34.696Z,93.1497
2018-01-26T10:07:39.892Z,92.7296
2018-01-26T10:08:45.364Z,92.2249
2018-01-26T10:09:50.786Z,92.7296
2018-01-26T10:10:56.258Z,92.4759
2018-01-26T10:12:01.737Z,91.9738
2018-01-26T10:13:06.882Z,91.2181
2018-01-26T10:14:12.350Z,91.7202
2018-01-26T10:15:17.966Z,91.2181
2018-01-26T10:16:23.220Z,90.4624
2018-01-26T10:17:27.845Z,90.7135
2018-01-26T10:18:33.681Z,90.7135
2018-01-26T10:19:38.889Z,90.9645
2018-01-26T10:20:44.383Z,90.7135
2018-01-26T10:21:49.821Z,90.0423
2018-01-26T10:22:55.004Z,89.7887
2018-01-26T10:24:00.473Z,89.2866
2018-01-26T10:25:05.724Z,89.7887
2018-01-26T10:26:10.642Z,90.4624
2018-01-26T10:27:16.111Z,89.5376
2018-01-26T10:28:21.838Z,89.7887
2018-01-26T10:29:27.354Z,90.0423
2018-01-26T10:30:32.899Z,89.7887
2018-01-26T10:31:38.095Z,90.0423
2018-01-26T10:32:43.567Z,89.2866
2018-01-26T10:33:49.014Z,89.5376
2018-01-26T10:34:53.926Z,90.0423
2018-01-26T10:35:59.124Z,89.2866
2018-01-26T10:37:04.888Z,89.2866
2018-01-26T10:38:10.202Z,90.0423
2018-01-26T10:39:14.495Z,90.0423
2018-01-26T10:40:20.577Z,88.7819
2018-01-26T10:41:25.770Z,89.7887
2018-01-26T10:42:31.009Z,89.7887
2018-01-26T10:43:36.486Z,90.2933
2018-01-26T10:44:41.683Z,90.7135
2018-01-26T10:45:47.084Z,90.7135
2018-01-26T10:46:52.556Z,90.2933
2018-01-26T10:47:57.745Z,90.4624
2018-01-26T10:49:03.017Z,89.7887
2018-01-26T10:50:07.910Z,90.7135
2018-01-26T10:51:13.102Z,90.2933
2018-01-26T10:52:17.683Z,90.9645
2018-01-26T10:53:22.313Z,90.4624
2018-01-26T10:54:28.102Z,90.4624
2018-01-26T10:55:33.282Z,90.2933
2018-01-26T10:56:38.179Z,90.0423
2018-01-26T10:57:43.436Z,90.4624
2018-01-26T10:58:48.904Z,90.0423
2018-01-26T10:59:54.086Z,90.7135
2018-01-26T11:00:59.584Z,89.2866
2018-01-26T11:02:04.246Z,90.4624
2018-01-26T11:03:09.453Z,90.0423
2018-01-26T11:04:14.628Z,90.7135
2018-01-26T11:05:20.112Z,90.7135
2018-01-26T11:06:39.754Z,91.4692
2018-01-26T11:07:45.217Z,91.4692
2018-01-26T11:08:50.201Z,90.7135
2018-01-26T11:09:55.928Z,90.2933
2018-01-26T11:11:01.410Z,90.2933
2018-01-26T11:12:06.327Z,91.2181
2018-01-26T11:13:11.529Z,90.4624
2018-01-26T11:14:16.710Z,90.9645
2018-01-26T11:15:22.217Z,90.7135
2018-01-26T11:16:42.340Z,90.9645
2018-01-26T11:17:47.510Z,91.2181
2018-01-26T11:18:52.380Z,90.7135
2018-01-26T11:19:57.290Z,91.2181
2018-01-26T11:21:02.554Z,90.4624
2018-01-26T11:22:07.245Z,90.7135
2018-01-26T11:23:12.728Z,91.4692
2018-01-26T11:24:18.419Z,90.9645
2018-01-26T11:25:23.895Z,90.9645
2018-01-26T11:26:29.092Z,90.9645
2018-01-26T11:27:34.856Z,90.0423
2018-01-26T11:28:40.035Z,90.9645
2018-01-26T11:29:45.250Z,90.2933
2018-01-26T11:30:50.673Z,90.9645
2018-01-26T11:31:55.858Z,90.9645
2018-01-26T11:33:00.760Z,91.2181
2018-01-26T11:34:05.954Z,91.4692
2018-01-26T11:35:11.150Z,91.2181
2018-01-26T11:36:16.347Z,90.7135
2018-01-26T11:37:21.502Z,90.7135
2018-01-26T11:38:26.976Z,90.7135
2018-01-26T11:39:32.912Z,90.9645
2018-01-26T11:40:38.125Z,90.4624
2018-01-26T11:41:43.032Z,90.2088
2018-01-26T11:42:48.586Z,89.7887
2018-01-26T11:43:54.083Z,89.7887
2018-01-26T11:44:59.541Z,90.0423
2018-01-26T11:46:04.395Z,89.7887
2018-01-26T11:47:09.880Z,89.7887
2018-01-26T11:48:15.364Z,90.0423
2018-01-26T11:49:21.085Z,89.0329
2018-01-26T11:50:26.575Z,88.5309
2018-01-26T11:51:32.014Z,89.5376
2018-01-26T11:52:36.922Z,88.7819
2018-01-26T11:53:42.395Z,89.2866
2018-01-26T11:54:47.826Z,89.5376
2018-01-26T11:55:53.068Z,89.0329
2018-01-26T11:56:58.294Z,88.0262
2018-01-26T11:58:03.568Z,88.7819
2018-01-26T11:59:08.746Z,88.0262
2018-01-26T12:00:14.227Z,88.2772
2018-01-26T12:01:20.143Z,88.0262
2018-01-26T12:02:25.610Z,88.5309
2018-01-26T12:03:31.204Z,88.2772
2018-01-26T12:04:36.387Z,87.3551
2018-01-26T12:05:41.590Z,87.7752
2018-01-26T12:06:47.443Z,88.0262
2018-01-26T12:07:52.912Z,88.0262
2018-01-26T12:08:58.090Z,88.2772
2018-01-26T12:10:03.374Z,88.7819
2018-01-26T12:11:08.474Z,88.5309
2018-01-26T12:12:13.985Z,88.2772
2018-01-26T12:13:20.116Z,87.7752
2018-01-26T12:14:25.293Z,88.0262
2018-01-26T12:15:30.723Z,87.7752
2018-01-26T12:16:36.194Z,87.7752
2018-01-26T12:17:41.685Z,87.6061
2018-01-26T12:18:47.218Z,86.6839
2018-01-26T12:19:52.695Z,87.6061
2018-01-26T12:20:57.638Z,87.7752
2018-01-26T12:22:03.109Z,87.3551
2018-01-26T12:23:08.300Z,87.3551
2018-01-26T12:24:13.762Z,87.104
2018-01-26T12:25:19.503Z,85.4235
2018-01-26T12:26:24.970Z,86.1792
2018-01-26T12:27:30.424Z,87.104
2018-01-26T12:28:36.105Z,86.1792
2018-01-26T12:29:41.212Z,87.104
2018-01-26T12:30:46.677Z,86.6839
2018-01-26T12:31:52.154Z,87.104
2018-01-26T12:32:57.669Z,86.8504
2018-01-26T12:34:02.771Z,85.9282
2018-01-26T12:35:07.406Z,86.4303
2018-01-26T12:36:12.311Z,86.6839
2018-01-26T12:37:17.290Z,86.1792
2018-01-26T12:38:22.189Z,86.6839
2018-01-26T12:39:28.004Z,86.8504
2018-01-26T12:40:33.519Z,86.6839
2018-01-26T12:41:38.741Z,86.1792
2018-01-26T12:42:44.516Z,86.8504
2018-01-26T12:43:50.002Z,86.8504
2018-01-26T12:44:54.917Z,86.6839
2018-01-26T12:46:00.435Z,86.6839
2018-01-26T12:47:05.907Z,85.9282
2018-01-26T12:48:10.827Z,86.1792
2018-01-26T12:49:16.531Z,86.1792
2018-01-26T12:50:21.719Z,86.1792
2018-01-26T12:51:27.682Z,85.9282
2018-01-26T12:52:33.158Z,85.4235
2018-01-26T12:53:38.051Z,85.4235
2018-01-26T12:54:43.887Z,85.4235
2018-01-26T12:55:49.378Z,85.1725
2018-01-26T12:56:54.548Z,85.4235
2018-01-26T12:57:59.985Z,86.4303
2018-01-26T12:59:05.456Z,84.7524
2018-01-26T13:00:10.126Z,84.7524
2018-01-26T13:01:15.572Z,84.5014
2018-01-26T13:02:21.056Z,84.7524
2018-01-26T13:03:27.127Z,84.2504
2018-01-26T13:04:32.310Z,84.2504
2018-01-26T13:05:37.508Z,83.9967
2018-01-26T13:06:42.820Z,84.7524
2018-01-26T13:07:47.996Z,85.0034
2018-01-26T13:08:53.188Z,85.1725
2018-01-26T13:09:58.737Z,84.5014
2018-01-26T13:11:03.921Z,85.6772
2018-01-26T13:12:08.831Z,85.1725
2018-01-26T13:13:14.286Z,85.1725
2018-01-26T13:14:19.495Z,85.6772
2018-01-26T13:15:24.185Z,84.5014
2018-01-26T13:16:44.552Z,84.7524